Time;durP1;ratioP1;P1;durP2;ratioP2;P2;SDS_P1;SDS_P2;PMS_P1;PMS_P2;Temp;Humidity;BMP_temperature;BMP_pressure;BME280_temperature;BME280_humidity;BME280_pressure;Samples;Min_cycle;Max_cycle;Signal;HPM_P1;HPM_P2
2023/01/25 00:00:49;;;;;;;;;72.00;56.67;;;;;;;;5070920;28;8778;-80
2023/01/25 00:03:16;;;;;;;;;69.00;53.33;;;;;;;;5073335;28;8837;-80
2023/01/25 00:05:44;;;;;;;;;79.67;59.67;;;;;;;;5071074;28;8857;-80
2023/01/25 00:08:13;;;;;;;;;54.33;44.67;;;;;;;;5070374;28;8860;-80
2023/01/25 00:10:40;;;;;;;;;70.33;56.00;;;;;;;;5071667;28;9219;-80
2023/01/25 00:13:08;;;;;;;;;74.00;56.00;;;;;;;;5071824;28;8836;-79
2023/01/25 00:15:36;;;;;;;;;64.00;48.00;;;;;;;;5074305;28;8848;-79
2023/01/25 00:18:03;;;;;;;;;76.00;61.00;;;;;;;;5076587;28;8899;-79
2023/01/25 00:20:31;;;;;;;;;76.00;57.67;;;;;;;;5074681;28;8866;-80
2023/01/25 00:22:59;;;;;;;;;60.33;52.33;;;;;;;;5071020;28;8873;-80
2023/01/25 00:25:28;;;;;;;;;64.67;52.00;;;;;;;;5077237;28;8880;-79
2023/01/25 00:28:08;;;;;;;;;69.33;54.00;;;;;;;;5072615;28;8809;-81
2023/01/25 00:30:36;;;;;;;;;64.33;50.33;;;;;;;;5078765;27;8798;-80
2023/01/25 00:33:14;;;;;;;;;63.33;50.33;;;;;;;;5071061;28;8860;-80
2023/01/25 00:35:41;;;;;;;;;69.00;54.67;;;;;;;;5073575;28;8849;-81
2023/01/25 00:38:27;;;;;;;;;62.67;48.33;;;;;;;;5070079;28;8869;-81
2023/01/25 00:40:58;;;;;;;;;69.33;57.33;;;;;;;;5075323;28;8837;-80
2023/01/25 00:43:27;;;;;;;;;69.00;56.67;;;;;;;;5071015;28;8836;-81
2023/01/25 00:46:01;;;;;;;;;75.00;55.67;;;;;;;;5070141;28;8848;-81
2023/01/25 00:48:28;;;;;;;;;71.33;53.33;;;;;;;;5072140;28;8837;-81
2023/01/25 00:51:00;;;;;;;;;69.00;52.67;;;;;;;;5056622;28;8846;-81
2023/01/25 00:53:29;;;;;;;;;63.00;51.33;;;;;;;;5073450;28;8838;-81
2023/01/25 00:55:58;;;;;;;;;65.00;50.00;;;;;;;;5077571;28;8872;-81
2023/01/25 00:58:26;;;;;;;;;73.00;56.33;;;;;;;;5075240;28;9713;-81
2023/01/25 01:00:55;;;;;;;;;68.67;55.33;;;;;;;;5069354;28;8790;-81
2023/01/25 01:03:24;;;;;;;;;69.00;53.00;;;;;;;;5073232;28;8898;-80
2023/01/25 01:06:00;;;;;;;;;63.00;50.67;;;;;;;;5071529;28;8858;-81
2023/01/25 01:08:29;;;;;;;;;65.33;51.67;;;;;;;;5069684;28;8849;-81
2023/01/25 01:11:03;;;;;;;;;62.33;51.00;;;;;;;;5069885;28;8854;-81
2023/01/25 01:13:30;;;;;;;;;66.67;52.33;;;;;;;;5074199;28;8809;-81
2023/01/25 01:16:01;;;;;;;;;65.33;52.33;;;;;;;;5073273;28;8939;-80
2023/01/25 01:18:29;;;;;;;;;82.00;61.00;;;;;;;;5075911;28;8842;-80
2023/01/25 01:20:57;;;;;;;;;68.67;54.67;;;;;;;;5076837;28;8838;-82
2023/01/25 01:23:24;;;;;;;;;39.33;38.33;;;;;;;;5074187;28;8848;-81
2023/01/25 01:25:52;;;;;;;;;66.00;52.00;;;;;;;;5073646;28;9000;-80
2023/01/25 01:28:21;;;;;;;;;65.33;49.67;;;;;;;;5076728;28;8842;-81
2023/01/25 01:30:49;;;;;;;;;60.00;43.33;;;;;;;;5078511;28;9621;-81
2023/01/25 01:33:16;;;;;;;;;54.00;42.67;;;;;;;;5073260;28;8814;-80
2023/01/25 01:35:46;;;;;;;;;60.00;48.33;;;;;;;;5076988;28;8838;-81
2023/01/25 01:38:13;;;;;;;;;62.67;49.00;;;;;;;;5072587;28;9141;-81
2023/01/25 01:40:46;;;;;;;;;67.00;52.67;;;;;;;;5077378;28;8876;-82
2023/01/25 01:43:18;;;;;;;;;56.33;47.33;;;;;;;;5077726;28;8846;-81
2023/01/25 01:45:54;;;;;;;;;63.00;46.67;;;;;;;;5106752;27;8834;-81
2023/01/25 01:48:31;;;;;;;;;59.33;51.00;;;;;;;;5079586;28;8849;-81
2023/01/25 01:51:02;;;;;;;;;68.67;53.33;;;;;;;;5107396;27;8861;-80
2023/01/25 01:53:33;;;;;;;;;62.67;48.67;;;;;;;;5082595;28;8861;-81
2023/01/25 01:56:05;;;;;;;;;69.00;54.33;;;;;;;;5077064;28;8818;-81
2023/01/25 01:58:33;;;;;;;;;68.00;54.00;;;;;;;;5075949;28;9628;-81
2023/01/25 02:01:02;;;;;;;;;59.33;47.00;;;;;;;;5079840;28;8793;-81
2023/01/25 02:03:31;;;;;;;;;56.33;47.00;;;;;;;;5078073;28;8888;-81
2023/01/25 02:06:02;;;;;;;;;65.00;50.00;;;;;;;;5075685;28;8833;-81
2023/01/25 02:08:33;;;;;;;;;49.33;42.67;;;;;;;;5077972;28;9659;-80
2023/01/25 02:11:02;;;;;;;;;63.67;48.00;;;;;;;;5077785;28;8845;-81
2023/01/25 02:13:30;;;;;;;;;57.33;49.33;;;;;;;;5071856;28;8886;-80
2023/01/25 02:15:57;;;;;;;;;63.00;51.00;;;;;;;;5074607;28;8833;-80
2023/01/25 02:18:27;;;;;;;;;66.00;53.00;;;;;;;;5077086;28;8830;-80
2023/01/25 02:20:56;;;;;;;;;62.00;50.33;;;;;;;;5076273;28;8852;-80
2023/01/25 02:23:28;;;;;;;;;74.00;58.33;;;;;;;;5076047;28;8852;-80
2023/01/25 02:26:01;;;;;;;;;52.00;41.67;;;;;;;;5073857;28;8840;-80
2023/01/25 02:28:32;;;;;;;;;57.00;46.00;;;;;;;;5078209;28;9817;-81
2023/01/25 02:31:00;;;;;;;;;59.33;50.67;;;;;;;;5073900;28;8810;-81
2023/01/25 02:33:28;;;;;;;;;57.67;46.00;;;;;;;;5074897;28;8895;-80
2023/01/25 02:36:01;;;;;;;;;50.00;41.67;;;;;;;;5076594;28;8964;-80
2023/01/25 02:38:31;;;;;;;;;62.67;49.00;;;;;;;;5073892;28;8888;-81
2023/01/25 02:41:06;;;;;;;;;59.67;46.00;;;;;;;;5075753;28;8841;-81
2023/01/25 02:43:35;;;;;;;;;68.00;55.67;;;;;;;;5077749;28;9232;-81
2023/01/25 02:46:09;;;;;;;;;62.00;49.00;;;;;;;;5074117;28;8854;-80
2023/01/25 02:48:37;;;;;;;;;55.33;44.33;;;;;;;;5075350;28;8930;-80
2023/01/25 02:51:07;;;;;;;;;51.67;42.67;;;;;;;;5073775;28;8872;-80
2023/01/25 02:53:35;;;;;;;;;70.67;51.67;;;;;;;;5075399;28;8872;-80
2023/01/25 02:56:05;;;;;;;;;65.00;49.33;;;;;;;;5078315;28;8862;-80
2023/01/25 02:58:32;;;;;;;;;61.67;50.67;;;;;;;;5075373;28;8864;-80
2023/01/25 03:01:00;;;;;;;;;56.67;43.33;;;;;;;;5079274;28;8837;-81
2023/01/25 03:03:28;;;;;;;;;65.67;49.33;;;;;;;;5072880;28;8853;-80
2023/01/25 03:05:55;;;;;;;;;73.33;54.00;;;;;;;;5079528;28;8880;-82
2023/01/25 03:08:23;;;;;;;;;59.33;48.67;;;;;;;;5076283;28;8841;-80
2023/01/25 03:10:55;;;;;;;;;64.33;48.67;;;;;;;;5077267;28;8890;-81
2023/01/25 03:13:24;;;;;;;;;59.33;47.33;;;;;;;;5075855;28;8860;-80
2023/01/25 03:15:52;;;;;;;;;59.67;49.00;;;;;;;;5075892;28;8862;-81
2023/01/25 03:18:20;;;;;;;;;63.33;49.00;;;;;;;;5072700;28;9646;-80
2023/01/25 03:20:48;;;;;;;;;65.33;51.67;;;;;;;;5076952;28;8975;-81
2023/01/25 03:23:15;;;;;;;;;64.00;47.67;;;;;;;;5074807;28;8869;-80
2023/01/25 03:25:43;;;;;;;;;74.67;56.33;;;;;;;;5080814;28;8856;-78
2023/01/25 03:28:10;;;;;;;;;56.33;42.33;;;;;;;;5077366;28;8849;-79
2023/01/25 03:30:40;;;;;;;;;62.67;49.00;;;;;;;;5072188;28;8762;-80
2023/01/25 03:33:08;;;;;;;;;65.33;49.33;;;;;;;;5073533;28;8837;-78
2023/01/25 03:35:35;;;;;;;;;48.33;42.67;;;;;;;;5074073;28;8845;-79
2023/01/25 03:38:03;;;;;;;;;63.00;51.67;;;;;;;;5075955;28;8828;-80
2023/01/25 03:40:30;;;;;;;;;66.33;49.33;;;;;;;;5075883;28;8840;-79
2023/01/25 03:43:00;;;;;;;;;65.00;54.00;;;;;;;;5070575;28;8840;-79
2023/01/25 03:45:28;;;;;;;;;66.00;54.67;;;;;;;;5075643;28;8884;-80
2023/01/25 03:47:57;;;;;;;;;69.33;54.67;;;;;;;;5075974;28;8850;-80
2023/01/25 03:50:25;;;;;;;;;64.00;53.00;;;;;;;;5077131;28;8834;-80
2023/01/25 03:52:58;;;;;;;;;65.33;53.00;;;;;;;;5075826;28;8876;-80
2023/01/25 03:55:26;;;;;;;;;60.00;45.33;;;;;;;;5074279;28;8872;-79
2023/01/25 03:57:53;;;;;;;;;70.33;54.00;;;;;;;;5073726;28;8838;-80
2023/01/25 04:00:21;;;;;;;;;72.00;52.00;;;;;;;;5073416;28;8866;-79
2023/01/25 04:02:49;;;;;;;;;69.00;49.67;;;;;;;;5073778;28;8861;-79
2023/01/25 04:05:18;;;;;;;;;73.67;58.67;;;;;;;;5076530;28;8861;-79
2023/01/25 04:07:47;;;;;;;;;64.33;49.33;;;;;;;;5076010;28;8826;-79
2023/01/25 04:10:14;;;;;;;;;73.67;51.67;;;;;;;;5079284;28;8859;-80
2023/01/25 04:12:42;;;;;;;;;65.67;50.67;;;;;;;;5073748;28;8872;-80
2023/01/25 04:15:11;;;;;;;;;64.33;49.67;;;;;;;;5076287;28;8829;-80
2023/01/25 04:17:38;;;;;;;;;66.33;54.00;;;;;;;;5070723;28;9332;-80
2023/01/25 04:20:08;;;;;;;;;59.67;47.67;;;;;;;;5078279;28;8869;-80
2023/01/25 04:22:37;;;;;;;;;72.33;53.00;;;;;;;;5073908;28;8853;-80
2023/01/25 04:25:05;;;;;;;;;67.00;54.33;;;;;;;;5068178;28;8857;-80
2023/01/25 04:27:32;;;;;;;;;62.33;50.00;;;;;;;;5074732;28;8898;-80
2023/01/25 04:30:00;;;;;;;;;68.33;54.00;;;;;;;;5073672;28;8881;-80
2023/01/25 04:32:28;;;;;;;;;82.33;58.67;;;;;;;;5071614;28;8806;-80
2023/01/25 04:34:55;;;;;;;;;53.67;47.67;;;;;;;;5074526;28;8854;-81
2023/01/25 04:37:23;;;;;;;;;68.33;55.33;;;;;;;;5068880;28;8845;-81
2023/01/25 04:39:52;;;;;;;;;73.33;57.67;;;;;;;;5074842;28;8840;-81
2023/01/25 04:42:20;;;;;;;;;68.00;55.00;;;;;;;;5076505;28;8854;-79
2023/01/25 04:44:47;;;;;;;;;70.00;53.67;;;;;;;;5073403;28;8893;-79
2023/01/25 04:47:15;;;;;;;;;63.67;51.67;;;;;;;;5069694;28;8967;-79
2023/01/25 04:49:42;;;;;;;;;40.67;38.33;;;;;;;;5077394;28;8843;-79
2023/01/25 04:52:10;;;;;;;;;61.67;49.00;;;;;;;;5073404;28;8849;-81
2023/01/25 04:54:37;;;;;;;;;79.00;58.67;;;;;;;;5071927;28;8838;-80
2023/01/25 04:57:07;;;;;;;;;43.00;41.33;;;;;;;;5080167;28;8854;-80
2023/01/25 04:59:34;;;;;;;;;35.00;32.00;;;;;;;;5074127;28;8872;-80
2023/01/25 05:02:01;;;;;;;;;58.33;44.67;;;;;;;;5076117;28;8802;-79
2023/01/25 05:04:29;;;;;;;;;64.00;47.67;;;;;;;;5076548;28;8841;-81
2023/01/25 05:06:56;;;;;;;;;43.33;41.00;;;;;;;;5075124;28;8882;-81
2023/01/25 05:09:24;;;;;;;;;45.00;42.33;;;;;;;;5076116;28;8846;-81
2023/01/25 05:11:51;;;;;;;;;48.67;44.33;;;;;;;;5078049;28;8841;-79
2023/01/25 05:14:21;;;;;;;;;49.67;41.00;;;;;;;;5079462;28;8841;-79
2023/01/25 05:16:48;;;;;;;;;51.33;42.33;;;;;;;;5078415;28;8879;-79
2023/01/25 05:19:16;;;;;;;;;37.33;37.33;;;;;;;;5073689;28;9019;-80
2023/01/25 05:21:59;;;;;;;;;56.00;44.67;;;;;;;;5080889;28;8882;-79
2023/01/25 05:24:28;;;;;;;;;52.00;40.00;;;;;;;;5075845;28;8889;-80
2023/01/25 05:27:02;;;;;;;;;56.33;43.33;;;;;;;;5077326;28;8884;-78
2023/01/25 05:29:34;;;;;;;;;47.33;41.00;;;;;;;;5075571;28;9699;-79
2023/01/25 05:32:03;;;;;;;;;59.33;46.00;;;;;;;;5077188;28;9637;-80
2023/01/25 05:34:30;;;;;;;;;56.67;47.33;;;;;;;;5078535;28;8857;-79
2023/01/25 05:36:58;;;;;;;;;67.33;48.00;;;;;;;;5074950;28;8874;-79
2023/01/25 05:39:26;;;;;;;;;59.00;44.00;;;;;;;;5057834;28;8858;-78
2023/01/25 05:41:53;;;;;;;;;63.67;49.67;;;;;;;;5075298;28;8854;-81
2023/01/25 05:44:21;;;;;;;;;59.33;45.00;;;;;;;;5081277;28;8861;-80
2023/01/25 05:46:50;;;;;;;;;63.67;53.00;;;;;;;;5078351;28;8871;-79
2023/01/25 05:49:19;;;;;;;;;69.00;49.00;;;;;;;;5077792;28;8850;-79
2023/01/25 05:51:47;;;;;;;;;59.00;46.33;;;;;;;;5080944;28;8854;-81
2023/01/25 05:54:18;;;;;;;;;69.00;53.33;;;;;;;;5079137;28;8983;-80
2023/01/25 05:56:47;;;;;;;;;61.67;49.33;;;;;;;;5078636;28;8852;-80
2023/01/25 05:59:14;;;;;;;;;62.67;48.33;;;;;;;;5078808;28;8856;-80
2023/01/25 06:01:42;;;;;;;;;40.67;36.67;;;;;;;;5075879;28;8789;-79
2023/01/25 06:04:12;;;;;;;;;59.00;48.00;;;;;;;;5076278;28;8840;-81
2023/01/25 06:06:40;;;;;;;;;70.67;54.00;;;;;;;;5081011;28;8848;-80
2023/01/25 06:09:07;;;;;;;;;69.00;51.33;;;;;;;;5079017;28;8875;-81
2023/01/25 06:11:35;;;;;;;;;65.00;49.00;;;;;;;;5073495;28;8857;-79
2023/01/25 06:14:02;;;;;;;;;58.33;48.00;;;;;;;;5076893;28;8862;-80
2023/01/25 06:16:30;;;;;;;;;59.33;46.67;;;;;;;;5078316;28;8852;-80
2023/01/25 06:18:57;;;;;;;;;60.67;49.00;;;;;;;;5077650;28;9754;-80
2023/01/25 06:21:27;;;;;;;;;54.00;42.00;;;;;;;;5079429;28;8864;-81
2023/01/25 06:23:55;;;;;;;;;60.33;47.33;;;;;;;;5080546;28;8807;-83
2023/01/25 06:26:23;;;;;;;;;71.00;53.00;;;;;;;;5083053;28;8855;-83
2023/01/25 06:28:50;;;;;;;;;53.00;44.67;;;;;;;;5076972;28;8852;-82
2023/01/25 06:31:18;;;;;;;;;62.67;47.00;;;;;;;;5076908;28;8796;-81
2023/01/25 06:33:49;;;;;;;;;55.33;44.67;;;;;;;;5085342;28;8832;-81
2023/01/25 06:36:20;;;;;;;;;65.00;48.00;;;;;;;;5080371;28;8856;-80
2023/01/25 06:38:51;;;;;;;;;41.33;35.67;;;;;;;;5075412;28;8891;-80
2023/01/25 06:41:19;;;;;;;;;63.33;49.33;;;;;;;;5079402;28;8929;-82
2023/01/25 06:43:47;;;;;;;;;55.67;42.00;;;;;;;;5075973;28;8860;-80
2023/01/25 06:46:14;;;;;;;;;67.33;51.00;;;;;;;;5112898;27;8836;-80
2023/01/25 06:48:42;;;;;;;;;51.00;41.67;;;;;;;;5074348;28;8924;-81
2023/01/25 06:51:13;;;;;;;;;40.00;35.00;;;;;;;;5109385;27;8915;-80
2023/01/25 06:53:42;;;;;;;;;52.00;43.00;;;;;;;;5078219;28;8848;-80
2023/01/25 06:56:13;;;;;;;;;49.00;40.67;;;;;;;;5076817;28;8868;-71
2023/01/25 06:58:41;;;;;;;;;47.67;42.00;;;;;;;;5074663;28;8954;-70
2023/01/25 07:01:11;;;;;;;;;50.33;43.67;;;;;;;;5084431;28;8907;-71
2023/01/25 07:03:39;;;;;;;;;48.67;40.67;;;;;;;;5079576;28;8848;-72
2023/01/25 07:06:09;;;;;;;;;49.33;38.67;;;;;;;;5075887;28;8832;-73
2023/01/25 07:08:38;;;;;;;;;52.33;42.33;;;;;;;;5074635;28;8968;-73
2023/01/25 07:11:08;;;;;;;;;29.33;28.00;;;;;;;;5075967;28;8813;-71
2023/01/25 07:13:36;;;;;;;;;36.67;34.33;;;;;;;;5077478;28;11567;-72
2023/01/25 07:16:06;;;;;;;;;29.67;27.67;;;;;;;;5076422;28;8902;-73
2023/01/25 07:18:36;;;;;;;;;39.33;30.00;;;;;;;;5076093;28;8835;-71
2023/01/25 07:21:04;;;;;;;;;28.33;24.00;;;;;;;;5072250;28;11571;-72
2023/01/25 07:23:33;;;;;;;;;36.67;33.00;;;;;;;;5074952;28;8853;-72
2023/01/25 07:26:01;;;;;;;;;39.33;31.67;;;;;;;;5073437;28;8964;-72
2023/01/25 07:28:30;;;;;;;;;30.33;28.67;;;;;;;;5071945;28;8848;-72
2023/01/25 07:31:05;;;;;;;;;19.33;19.33;;;;;;;;5075401;28;8850;-72
2023/01/25 07:33:32;;;;;;;;;34.00;28.00;;;;;;;;5074508;28;11685;-71
2023/01/25 07:36:00;;;;;;;;;30.67;27.33;;;;;;;;5073808;28;8945;-72
2023/01/25 07:38:28;;;;;;;;;33.33;24.33;;;;;;;;5073201;28;11557;-72
2023/01/25 07:40:56;;;;;;;;;30.67;28.00;;;;;;;;5077056;28;8848;-72
2023/01/25 07:43:24;;;;;;;;;37.67;29.33;;;;;;;;5078424;28;11579;-72
2023/01/25 07:45:51;;;;;;;;;38.67;33.00;;;;;;;;5078439;28;9771;-72
2023/01/25 07:48:20;;;;;;;;;27.33;23.00;;;;;;;;5077474;28;8871;-72
2023/01/25 07:50:48;;;;;;;;;28.33;24.00;;;;;;;;5076947;28;8864;-72
2023/01/25 07:53:16;;;;;;;;;33.00;22.00;;;;;;;;5076943;28;8926;-72
2023/01/25 07:55:44;;;;;;;;;34.33;31.00;;;;;;;;5073370;28;12348;-72
2023/01/25 07:58:11;;;;;;;;;35.67;32.67;;;;;;;;5072324;28;8865;-72
2023/01/25 08:00:39;;;;;;;;;30.67;27.67;;;;;;;;5077465;28;11513;-73
2023/01/25 08:03:07;;;;;;;;;41.00;36.33;;;;;;;;5074016;28;8913;-73
2023/01/25 08:05:35;;;;;;;;;40.00;35.67;;;;;;;;5076931;28;8844;-72
2023/01/25 08:08:02;;;;;;;;;35.67;35.00;;;;;;;;5072541;28;8846;-73
2023/01/25 08:10:30;;;;;;;;;53.33;43.00;;;;;;;;5076238;28;8868;-73
2023/01/25 08:12:57;;;;;;;;;32.33;30.33;;;;;;;;5071949;28;8975;-72
2023/01/25 08:15:25;;;;;;;;;32.67;27.33;;;;;;;;5075462;28;8848;-73
2023/01/25 08:17:52;;;;;;;;;55.67;46.00;;;;;;;;5069572;28;11558;-73
2023/01/25 08:20:21;;;;;;;;;35.67;32.00;;;;;;;;5074356;28;8832;-73
2023/01/25 08:22:51;;;;;;;;;39.00;37.00;;;;;;;;5073673;28;8836;-73
2023/01/25 08:25:18;;;;;;;;;61.67;46.00;;;;;;;;5077479;28;8852;-72
2023/01/25 08:27:45;;;;;;;;;54.00;42.00;;;;;;;;5074792;28;8891;-72
2023/01/25 08:30:13;;;;;;;;;50.00;37.67;;;;;;;;5074501;28;9291;-72
2023/01/25 08:32:40;;;;;;;;;53.00;42.33;;;;;;;;5075447;28;8874;-72
2023/01/25 08:35:09;;;;;;;;;39.00;33.00;;;;;;;;5074160;28;8844;-72
2023/01/25 08:37:36;;;;;;;;;41.00;36.00;;;;;;;;5078485;28;8866;-72
2023/01/25 08:40:07;;;;;;;;;65.67;51.67;;;;;;;;5078294;28;8840;-72
2023/01/25 08:42:34;;;;;;;;;48.67;40.33;;;;;;;;5080449;28;8921;-71
2023/01/25 08:45:02;;;;;;;;;34.00;29.33;;;;;;;;5080527;28;8864;-72
2023/01/25 08:47:30;;;;;;;;;61.00;45.33;;;;;;;;5078996;28;8856;-71
2023/01/25 08:49:58;;;;;;;;;42.33;36.00;;;;;;;;5080164;28;8851;-72
2023/01/25 08:52:25;;;;;;;;;43.33;39.67;;;;;;;;5082238;28;8860;-72
2023/01/25 08:54:53;;;;;;;;;35.00;32.67;;;;;;;;5081556;28;8868;-73
2023/01/25 08:57:22;;;;;;;;;30.67;27.67;;;;;;;;5077180;28;8856;-72
2023/01/25 08:59:49;;;;;;;;;61.33;49.67;;;;;;;;5080888;28;8929;-73
2023/01/25 09:02:20;;;;;;;;;42.33;40.33;;;;;;;;5077426;28;8784;-75
2023/01/25 09:04:47;;;;;;;;;33.33;29.33;;;;;;;;5075023;28;8990;-71
2023/01/25 09:07:15;;;;;;;;;39.00;38.67;;;;;;;;5078569;28;8889;-72
2023/01/25 09:09:43;;;;;;;;;31.33;25.33;;;;;;;;5080520;28;8890;-72
2023/01/25 09:12:10;;;;;;;;;48.33;41.00;;;;;;;;5072934;28;8868;-72
2023/01/25 09:14:39;;;;;;;;;52.00;44.33;;;;;;;;5077678;28;8875;-72
2023/01/25 09:17:07;;;;;;;;;51.33;41.67;;;;;;;;5076556;28;8914;-72
2023/01/25 09:19:34;;;;;;;;;37.00;35.00;;;;;;;;5074528;28;8932;-72
2023/01/25 09:22:02;;;;;;;;;37.00;32.33;;;;;;;;5076655;28;8843;-75
2023/01/25 09:24:29;;;;;;;;;36.00;32.00;;;;;;;;5076318;28;8851;-73
2023/01/25 09:26:57;;;;;;;;;51.00;45.00;;;;;;;;5074079;28;8857;-73
2023/01/25 09:29:24;;;;;;;;;48.67;41.00;;;;;;;;5077859;28;8832;-73
2023/01/25 09:31:53;;;;;;;;;55.67;45.33;;;;;;;;5077993;28;8813;-73
2023/01/25 09:34:21;;;;;;;;;60.00;45.00;;;;;;;;5076057;28;8836;-73
2023/01/25 09:36:48;;;;;;;;;49.00;41.00;;;;;;;;5074195;28;8867;-72
2023/01/25 09:39:16;;;;;;;;;55.67;47.00;;;;;;;;5067768;28;8876;-72
2023/01/25 09:42:31;;;;;;;;;54.00;41.00;;;;;;;;5079522;28;8861;-71
2023/01/25 09:45:24;;;;;;;;;40.33;37.00;;;;;;;;5073119;28;8957;-73
2023/01/25 09:47:58;;;;;;;;;46.67;42.00;;;;;;;;5074094;28;8862;-73
2023/01/25 09:50:37;;;;;;;;;37.33;29.67;;;;;;;;5073716;28;8830;-74
2023/01/25 09:53:20;;;;;;;;;34.00;28.67;;;;;;;;5074671;28;8841;-74
2023/01/25 09:55:53;;;;;;;;;49.33;42.33;;;;;;;;5075530;28;9005;-72
2023/01/25 09:58:24;;;;;;;;;63.00;45.67;;;;;;;;5077828;28;8915;-71
2023/01/25 10:00:55;;;;;;;;;48.33;42.67;;;;;;;;5076435;28;8815;-72
2023/01/25 10:03:27;;;;;;;;;45.67;37.33;;;;;;;;5077499;28;8958;-72
2023/01/25 10:05:58;;;;;;;;;54.33;45.00;;;;;;;;5076472;28;8822;-72
2023/01/25 10:08:30;;;;;;;;;64.00;45.33;;;;;;;;5075639;28;8840;-71
2023/01/25 10:11:02;;;;;;;;;56.33;44.00;;;;;;;;5077305;28;8860;-72
2023/01/25 10:13:30;;;;;;;;;53.33;45.00;;;;;;;;5074130;28;8844;-74
2023/01/25 10:16:02;;;;;;;;;46.33;43.67;;;;;;;;5074787;28;8830;-75
2023/01/25 10:18:34;;;;;;;;;59.00;46.67;;;;;;;;5066875;28;8858;-73
2023/01/25 10:21:04;;;;;;;;;53.33;42.67;;;;;;;;5076790;28;9701;-72
2023/01/25 10:23:41;;;;;;;;;60.67;45.00;;;;;;;;5079434;28;8867;-73
2023/01/25 10:26:11;;;;;;;;;53.00;45.67;;;;;;;;5074766;28;8864;-73
2023/01/25 10:28:42;;;;;;;;;62.33;52.33;;;;;;;;5071277;28;8936;-73
2023/01/25 10:31:18;;;;;;;;;60.67;46.67;;;;;;;;5073645;28;8805;-72
2023/01/25 10:33:49;;;;;;;;;61.00;52.33;;;;;;;;5071728;28;8915;-72
2023/01/25 10:36:18;;;;;;;;;62.00;52.67;;;;;;;;5074578;28;8844;-72
2023/01/25 10:38:47;;;;;;;;;49.67;43.67;;;;;;;;5072687;28;8866;-72
2023/01/25 10:41:20;;;;;;;;;53.67;45.00;;;;;;;;5076322;28;9321;-71
2023/01/25 10:44:20;;;;;;;;;53.33;45.33;;;;;;;;5076338;28;8862;-74
2023/01/25 10:46:35;;;;;;;;;53.67;43.67;;;;;;;;5075667;28;8882;-73
2023/01/25 10:49:21;;;;;;;;;55.67;45.00;;;;;;;;5074971;28;9684;-73
2023/01/25 10:51:48;;;;;;;;;68.00;50.00;;;;;;;;5076598;28;8846;-72
2023/01/25 10:54:16;;;;;;;;;74.67;57.33;;;;;;;;5077660;28;8942;-72
2023/01/25 10:56:46;;;;;;;;;67.67;49.00;;;;;;;;5076665;28;8886;-73
2023/01/25 10:59:20;;;;;;;;;71.00;59.00;;;;;;;;5055977;28;8911;-72
2023/01/25 11:01:50;;;;;;;;;73.00;57.00;;;;;;;;5074821;28;9621;-72
2023/01/25 11:04:32;;;;;;;;;64.33;50.67;;;;;;;;5078050;28;8871;-71
2023/01/25 11:07:01;;;;;;;;;66.67;54.33;;;;;;;;5075643;28;8856;-73
2023/01/25 11:09:37;;;;;;;;;66.67;53.33;;;;;;;;5075190;28;8856;-71
2023/01/25 11:12:15;;;;;;;;;81.00;64.00;;;;;;;;5077150;28;8914;-70
2023/01/25 11:14:43;;;;;;;;;69.67;55.33;;;;;;;;5076226;28;8859;-71
2023/01/25 11:17:25;;;;;;;;;66.00;53.00;;;;;;;;5075331;28;8852;-71
2023/01/25 11:20:15;;;;;;;;;79.67;61.33;;;;;;;;5078665;28;8856;-71
2023/01/25 11:22:51;;;;;;;;;57.00;49.33;;;;;;;;5076309;28;8858;-72
2023/01/25 11:25:31;;;;;;;;;57.33;44.00;;;;;;;;5075117;28;8847;-71
2023/01/25 11:28:19;;;;;;;;;69.67;53.67;;;;;;;;5073258;28;8863;-71
2023/01/25 11:30:47;;;;;;;;;61.67;50.33;;;;;;;;5076538;28;8792;-70
2023/01/25 11:33:16;;;;;;;;;61.00;47.67;;;;;;;;5069210;28;9075;-71
2023/01/25 11:35:59;;;;;;;;;68.33;52.00;;;;;;;;5080019;28;9633;-71
2023/01/25 11:38:28;;;;;;;;;72.00;53.33;;;;;;;;5106134;27;8987;-72
2023/01/25 11:41:00;;;;;;;;;67.67;51.00;;;;;;;;5080033;28;8999;-72
2023/01/25 11:43:52;;;;;;;;;70.00;54.67;;;;;;;;5069369;28;9634;-73
2023/01/25 11:46:28;;;;;;;;;72.33;59.67;;;;;;;;5075540;28;8851;-74
2023/01/25 11:49:08;;;;;;;;;70.33;55.67;;;;;;;;5078040;28;8872;-74
2023/01/25 11:51:43;;;;;;;;;69.00;56.00;;;;;;;;5073155;28;8862;-73
2023/01/25 11:54:29;;;;;;;;;61.67;45.33;;;;;;;;5072221;28;9646;-72
2023/01/25 11:57:00;;;;;;;;;65.33;50.67;;;;;;;;5072999;28;8884;-71
2023/01/25 11:59:59;;;;;;;;;66.67;50.67;;;;;;;;5074708;28;8863;-71
2023/01/25 12:03:10;;;;;;;;;72.33;59.33;;;;;;;;5047560;28;9556;-72
2023/01/25 12:05:56;;;;;;;;;73.67;53.00;;;;;;;;5026946;28;8860;-73
2023/01/25 12:08:39;;;;;;;;;65.33;50.67;;;;;;;;5065833;28;8874;-72
2023/01/25 12:11:13;;;;;;;;;79.00;58.67;;;;;;;;5071888;28;8910;-72
2023/01/25 12:13:48;;;;;;;;;61.00;46.00;;;;;;;;5076390;28;8919;-72
2023/01/25 12:16:34;;;;;;;;;68.00;55.67;;;;;;;;5071305;28;8826;-72
2023/01/25 12:19:20;;;;;;;;;70.67;53.33;;;;;;;;5075014;28;8848;-75
2023/01/25 12:22:00;;;;;;;;;87.00;67.50;;;;;;;;5070713;28;9654;-75
2023/01/25 12:24:43;;;;;;;;;75.33;61.00;;;;;;;;5070156;28;8948;-73
2023/01/25 12:27:20;;;;;;;;;76.33;62.67;;;;;;;;5068513;28;8839;-75
2023/01/25 12:29:52;;;;;;;;;77.00;60.00;;;;;;;;5073688;28;8875;-74
2023/01/25 12:32:26;;;;;;;;;66.67;53.00;;;;;;;;5072838;28;8804;-74
2023/01/25 12:35:04;;;;;;;;;75.67;61.33;;;;;;;;5075712;28;8892;-74
2023/01/25 12:37:35;;;;;;;;;71.33;53.67;;;;;;;;5071594;28;8852;-73
2023/01/25 12:40:09;;;;;;;;;78.00;61.33;;;;;;;;5075225;28;8864;-72
2023/01/25 12:42:40;;;;;;;;;60.00;49.67;;;;;;;;5075927;28;8898;-72
2023/01/25 12:45:13;;;;;;;;;60.00;48.67;;;;;;;;5072881;28;8971;-73
2023/01/25 12:47:46;;;;;;;;;50.33;45.00;;;;;;;;5071890;28;8973;-72
2023/01/25 12:50:17;;;;;;;;;77.67;60.00;;;;;;;;5072920;28;8848;-73
2023/01/25 12:52:49;;;;;;;;;67.33;53.67;;;;;;;;5078160;28;8940;-73
2023/01/25 12:55:18;;;;;;;;;47.00;38.33;;;;;;;;5077100;28;8866;-72
2023/01/25 12:57:54;;;;;;;;;67.67;49.00;;;;;;;;5071649;28;8854;-71
2023/01/25 13:00:24;;;;;;;;;61.33;49.00;;;;;;;;5071744;28;8871;-72
2023/01/25 13:03:03;;;;;;;;;66.67;52.33;;;;;;;;5072745;28;8851;-72
2023/01/25 13:05:36;;;;;;;;;61.00;49.33;;;;;;;;5069079;28;8859;-72
2023/01/25 13:08:15;;;;;;;;;62.67;49.00;;;;;;;;5075344;28;8871;-71
2023/01/25 13:10:47;;;;;;;;;58.00;43.67;;;;;;;;5074829;28;8848;-72
2023/01/25 13:13:24;;;;;;;;;65.00;50.33;;;;;;;;5069771;28;8870;-71
2023/01/25 13:15:53;;;;;;;;;72.00;55.00;;;;;;;;5077456;28;8844;-72
2023/01/25 13:18:38;;;;;;;;;65.00;50.67;;;;;;;;5074583;28;8852;-72
2023/01/25 13:21:11;;;;;;;;;64.00;48.00;;;;;;;;5074489;28;8867;-71
2023/01/25 13:23:42;;;;;;;;;68.33;55.33;;;;;;;;5073931;28;8850;-72
2023/01/25 13:26:48;;;;;;;;;63.67;52.00;;;;;;;;5077899;28;8832;-73
2023/01/25 13:29:51;;;;;;;;;69.00;51.33;;;;;;;;5076543;28;8870;-73
2023/01/25 13:32:48;;;;;;;;;63.67;49.00;;;;;;;;5074150;28;8920;-72
2023/01/25 13:35:27;;;;;;;;;65.67;54.00;;;;;;;;5079981;28;8860;-72
2023/01/25 13:38:01;;;;;;;;;71.33;50.33;;;;;;;;5077714;28;8848;-73
2023/01/25 13:40:32;;;;;;;;;65.00;50.33;;;;;;;;5074461;28;8870;-71
2023/01/25 13:43:02;;;;;;;;;69.67;53.67;;;;;;;;5078746;28;8848;-74
2023/01/25 13:45:32;;;;;;;;;66.67;53.33;;;;;;;;5075868;28;8860;-73
2023/01/25 13:48:06;;;;;;;;;50.33;46.33;;;;;;;;5075655;28;8858;-74
2023/01/25 13:50:36;;;;;;;;;72.00;53.33;;;;;;;;5079859;28;8930;-74
2023/01/25 13:53:06;;;;;;;;;67.33;52.67;;;;;;;;5074356;28;9681;-73
2023/01/25 13:55:40;;;;;;;;;64.67;53.33;;;;;;;;5076999;28;8848;-73
2023/01/25 13:58:18;;;;;;;;;61.67;46.67;;;;;;;;5077573;28;8836;-74
2023/01/25 14:00:50;;;;;;;;;73.33;59.33;;;;;;;;5078546;28;8799;-74
2023/01/25 14:03:18;;;;;;;;;64.00;51.00;;;;;;;;5075511;28;8856;-74
2023/01/25 14:05:51;;;;;;;;;75.00;57.67;;;;;;;;5078417;28;8963;-74
2023/01/25 14:08:21;;;;;;;;;66.67;54.00;;;;;;;;5079404;28;8936;-72
2023/01/25 14:10:49;;;;;;;;;59.67;46.67;;;;;;;;5077806;28;8848;-72
2023/01/25 14:13:18;;;;;;;;;65.00;47.33;;;;;;;;5079600;28;8836;-72
2023/01/25 14:15:56;;;;;;;;;68.67;53.67;;;;;;;;5080054;28;8850;-74
2023/01/25 14:18:28;;;;;;;;;64.67;50.00;;;;;;;;5059023;28;8864;-73
2023/01/25 14:21:12;;;;;;;;;50.33;41.67;;;;;;;;5076377;28;8848;-73
2023/01/25 14:23:40;;;;;;;;;59.33;47.00;;;;;;;;5078551;28;8852;-72
2023/01/25 14:26:19;;;;;;;;;63.00;47.00;;;;;;;;5074633;28;8856;-72
2023/01/25 14:28:52;;;;;;;;;45.67;39.67;;;;;;;;5079284;28;8844;-72
2023/01/25 14:31:22;;;;;;;;;59.33;50.33;;;;;;;;5079441;28;9562;-72
2023/01/25 14:33:56;;;;;;;;;61.67;48.67;;;;;;;;5079660;28;8875;-71
2023/01/25 14:36:25;;;;;;;;;64.33;53.00;;;;;;;;5076968;28;8844;-72
2023/01/25 14:38:52;;;;;;;;;65.33;50.33;;;;;;;;5074672;28;8890;-72
2023/01/25 14:41:21;;;;;;;;;206.50;176.00;;;;;;;;5078034;28;8997;-72
2023/01/25 14:43:53;;;;;;;;;68.00;53.00;;;;;;;;5078321;28;8827;-72
2023/01/25 14:46:23;;;;;;;;;76.00;56.00;;;;;;;;5079485;28;8958;-72
2023/01/25 14:48:51;;;;;;;;;74.33;57.00;;;;;;;;5077564;28;8848;-72
2023/01/25 14:51:25;;;;;;;;;79.67;64.33;;;;;;;;5078736;28;8844;-73